KPBH

Price County Airport

Phillips, Wisconsin, USA
METAR KPBH 131055Z AUTO 18005KT 7SM OVC006 M01/M01 A2992 RMK AO2 T10121012
Observed Flight Rules
Dec-13 @ 10:55 UTC (6 minutes ago) Instrument Flight Rules
Wind Visibility Clouds
180° at 5 knots 7 miles
  • Overcast at 600' AGL
Temperatures Readings
Current -1°C / 30°F
Dewpoint -1°C / 30°F
Humidity 100%
Altimeter 29.92" Hg
Pressure 1013 hPa
Elevation 449
METAR KPBH 131055Z AUTO 18005KT 7SM OVC006 M01/M01 A2992 RMK AO2 T10121012
Observed Flight Rules
Dec-13 @ 10:55 UTC
(6 minutes ago)
IFR
Wind Visibility
180° at 5 knots 7 miles
Clouds
  • Overcast at 600' AGL
Temperature Dewpoint
-1°C / 30°F -1°C / 30°F
Humidity Altimeter Pressure
100% 29.92" Hg 1013 hPa